x

Santa Maria - 21nm Nw Of Point Arguello, Ca (46011) Wave Buoy

5:50am - Tue 2nd Jun 2015 All times are PDT. -7 hours from GMT.

  • Sig Wave height 3.3ft
  • Swell Direction
  • Peak Period 12s
  • Average Period 5s
  • Wind
    16mph, 18mph gusts
  • Sea Temp 59°f
  • Air Temp 56°f
  • Sea Pressure 1017.4mb
  • Santa Maria - 21nm Nw Of Point Arguello, Ca
  • Santa Maria - 21nm Nw Of Point Arguello, Ca

More Historic Weather Station data

Upgrade to MSW Pro to gain access to the past 30 days of data for over 8000 Wavebouys and Weather Stations around the globe.

Join Pro

Comparision Forecast

View Surf forecast
   
Tue 06/02 5:50am 3.5ft 12s 5s 16 18 mph 1017.4mb 59f 56f
4:50am 3.5ft 12s 5s 13 16 mph 1017.5mb 59f 56f
3:50am 3.5ft 11s 6s 16 18 mph 1017.4mb 59f 56f
2:50am 3.5ft 13s 7s 13 16 mph 1017.7mb 59f 57f
1:50am 4ft 12s 7s 9 13 mph 1017.9mb 59f 58f
12:50am 4ft 12s 7s 11 16 mph 1018.1mb 59f 57f
Mon 06/01 11:50pm 4ft 11s 7s 11 16 mph 1018.3mb 59f 58f
10:50pm 3.5ft 14s 7s 9 11 mph 1018.3mb 59f 57f
9:50pm 3.5ft 12s 6s 13 16 mph 1018mb 59f 58f
8:50pm 3.5ft 13s 7s 13 16 mph 1017.5mb 59f 59f
7:50pm 3ft 13s 6s 13 16 mph 1017.2mb 60f 58f
6:50pm 3ft 13s 10s 16 18 mph 1017mb 60f 60f
5:50pm 3ft 13s 11s 13 16 mph 1017.3mb 60f 60f
4:50pm 3ft 13s 11s 11 13 mph 1017.5mb 58f 60f
3:50pm 3ft 15s 11s 9 11 mph 1018mb 58f 59f
2:50pm 3.5ft 13s 11s 9 11 mph 1018.2mb 58f 58f
1:50pm 2.5ft 13s 10s 9
mph
1018.5mb 58f 58f
12:50pm 3.5ft 13s 10s 9 11 mph 1018.6mb 58f 57f
11:50am 3.5ft 15s 10s 4
mph
1018.6mb 59f 57f
10:50am 2.5ft 13s 10s 9 11 mph 1018.3mb 58f 57f
9:50am 3ft 15s 10s 7 9 mph 1018mb 58f 56f
8:50am 2.5ft 13s 9s 7 9 mph 1017.8mb 58f 56f
7:50am 3ft 12s 10s 9
mph
1017.3mb 56f 56f
6:50am 2.5ft 15s 9s 7 9 mph 1016.9mb 57f 56f
5:50am 3ft 15s 9s 7
mph
1016.5mb 57f 55f
4:50am 2.5ft 14s 8s 4 7 mph 1016.2mb 57f 55f
3:50am 2.5ft 14s 7s 7 9 mph 1015.9mb 56f 55f
2:50am 2.5ft 14s 7s 9
mph
1016.3mb 56f 55f
1:50am 3ft 15s 7s 11 13 mph 1016.6mb 56f 55f
12:50am 3ft 15s 7s 11 16 mph 1016.5mb 56f 55f
Sun 05/31 11:50pm 3ft 13s 7s 13 16 mph 1016.4mb 57f 56f
10:50pm 2.5ft 15s 6s 11 13 mph 1016.3mb 57f 56f
9:50pm 3ft 15s 7s 13 16 mph 1016.1mb 57f 56f
8:50pm 2.5ft 13s 6s 13 18 mph 1015.5mb 56f 55f
7:50pm 3ft 16s 8s 13 16 mph 1015.3mb 57f 56f
6:50pm 2.5ft 15s 8s 13 16 mph 1015.2mb 57f 56f
5:50pm 3ft 14s 9s 13 16 mph 1015.2mb 57f 56f
4:50pm 3ft 14s 8s 7
mph
1015.5mb 58f 56f
3:50pm 3ft 16s 7s 4 7 mph 1015.7mb 58f 56f
2:50pm 3ft 16s 7s 4
mph
1016.3mb 58f 55f
1:50pm 3ft 13s 7s 4
mph
1016.5mb 57f 55f
12:50pm 3.5ft 16s 7s 4 7 mph 1016.6mb 57f 55f
11:50am 3ft 16s 8s 7 9 mph 1016.6mb 57f 54f
10:50am 3ft 13s 7s 9 11 mph 1016.5mb 57f 53f
9:50am 3ft 16s 7s 7 9 mph 1015.8mb 56f 53f
8:50am 3ft 13s 7s 7 9 mph 1015.3mb 56f 53f
7:50am 2.5ft 13s 7s 7 9 mph 1015.1mb 56f 52f
6:50am 3.5ft 14s 8s 9 11 mph 1015.1mb 56f 52f
5:50am 3.5ft 15s 7s 9 13 mph 1014.7mb 56f 52f
4:50am 3.5ft 14s 6s 9 11 mph 1014.2mb 56f 53f
3:50am 3.5ft 16s 6s 7 11 mph 1014.2mb 56f 53f
2:50am 3.5ft 14s 6s 7 9 mph 1014.3mb 56f 53f
1:50am 3.5ft 16s 6s 9 11 mph 1014.6mb 56f 54f
12:50am 4ft 15s 6s 11
mph
1014.6mb 56f 54f
Sat 05/30 11:50pm 4ft 15s 6s 11 13 mph 1014.7mb 56f 54f
10:50pm 4ft 14s 6s 13 16 mph 1014.3mb 56f 55f
9:50pm 3.5ft 14s 6s 13 18 mph 1014.4mb 56f 55f
8:50pm 3.5ft 13s 6s 13 18 mph 1014.1mb 56f 54f
7:50pm 3.5ft 14s 6s 11 13 mph 1013.6mb 56f 54f
6:50pm 3.5ft 15s 6s 11 13 mph 1013.4mb 56f 54f
5:50pm 3.5ft 13s 6s 11 16 mph 1014mb 56f 55f
4:50pm 4ft 13s 6s 11 13 mph 1014.9mb 56f 55f
3:50pm 4.5ft 15s 6s 9 11 mph 1015.4mb 56f 55f
2:50pm 4.5ft 14s 6s 9
mph
1015.8mb 56f 55f
1:50pm 4.5ft 6s 6s 11 13 mph 1016mb 56f 54f
12:50pm 4.5ft 6s 6s 11 13 mph 1016.1mb 56f 54f
11:50am 4.5ft 7s 6s 13 16 mph 1016.1mb 56f 53f
10:50am 5ft 6s 6s 11
mph
1015.9mb 56f 53f
9:50am 5ft 15s 6s 9 11 mph 1015.6mb 56f 53f
8:50am 4.5ft 12s 6s 9 11 mph 1015.8mb 56f 53f
7:50am 4.5ft 14s 6s 16 18 mph 1015.6mb 56f 53f
6:50am 4.5ft 14s 6s 13 18 mph 1015.4mb 56f 53f
5:50am 4.5ft 14s 6s 16 20 mph 1015.1mb 56f 53f
4:50am 4.5ft 14s 6s 13 18 mph 1014.3mb 56f 53f
3:50am 5ft 6s 6s 13 16 mph 1013.8mb 56f 53f
2:50am 5ft 6s 6s 13 16 mph 1013.6mb 56f 53f
1:50am 5.5ft 12s 6s 16 18 mph 1014mb 56f 53f
12:50am 5ft 7s 6s 13 16 mph 1014.5mb 56f 53f
Fri 05/29 11:50pm 5ft 7s 6s 16 18 mph 1014.7mb 56f 53f
10:50pm 5.5ft 6s 6s 16 18 mph 1015.2mb 56f 54f
9:50pm 5ft 12s 6s 16 20 mph 1015mb 56f 54f
8:50pm 6ft 12s 6s 16 20 mph 1014.9mb 56f 54f
7:50pm 5.5ft 14s 6s 16 20 mph 1014.9mb 56f 54f
6:50pm 5.5ft 13s 6s 16 20 mph 1014.8mb 56f 55f
5:50pm 5.5ft 12s 6s 16 20 mph 1014.8mb 56f 55f
4:50pm 5.5ft 12s 6s 16 18 mph 1015mb 56f 55f
3:50pm 6ft 6s 6s 18 20 mph 1014.8mb 56f 55f
2:50pm 6ft 13s 6s 18 22 mph 1015.2mb 56f 55f
1:50pm 6ft 14s 6s 16 20 mph 1015.8mb 56f 55f